createdAt,value
2017-03-27T00:00:20.432Z,72.60
2017-03-27T00:01:20.444Z,72.60
2017-03-27T00:02:19.705Z,72.60
2017-03-27T00:03:19.009Z,72.80
2017-03-27T00:04:18.277Z,73.20
2017-03-27T00:05:17.877Z,73.10
2017-03-27T00:06:17.130Z,73.10
2017-03-27T00:07:16.408Z,73.40
2017-03-27T00:08:15.678Z,73.40
2017-03-27T00:09:15.711Z,73.20
2017-03-27T00:10:14.987Z,73.30
2017-03-27T00:11:14.335Z,74.10
2017-03-27T00:12:13.734Z,74.00
2017-03-27T00:13:13.026Z,73.70
2017-03-27T00:14:12.319Z,73.70
2017-03-27T00:15:11.645Z,73.60
2017-03-27T00:16:10.911Z,73.60
2017-03-27T00:17:10.258Z,73.50
2017-03-27T00:18:09.585Z,73.90
2017-03-27T00:19:08.862Z,74.00
2017-03-27T00:20:08.184Z,74.10
2017-03-27T00:21:07.452Z,74.90
2017-03-27T00:22:06.759Z,74.70
2017-03-27T00:23:06.054Z,74.90
2017-03-27T00:24:05.315Z,74.80
2017-03-27T00:25:04.635Z,74.90
2017-03-27T00:26:03.888Z,75.80
2017-03-27T00:27:03.195Z,75.60
2017-03-27T00:28:02.462Z,75.60
2017-03-27T00:29:01.817Z,75.50
2017-03-27T00:30:01.076Z,75.80
2017-03-27T00:31:00.324Z,76.00
2017-03-27T00:31:59.569Z,75.90
2017-03-27T00:32:59.575Z,76.20
2017-03-27T00:33:58.809Z,76.30
2017-03-27T00:34:58.085Z,76.50
2017-03-27T00:35:57.401Z,76.90
2017-03-27T00:36:57.020Z,77.30
2017-03-27T00:37:56.291Z,77.20
2017-03-27T00:38:55.533Z,77.20
2017-03-27T00:39:55.633Z,77.20
2017-03-27T00:40:55.218Z,77.30
2017-03-27T00:41:54.498Z,76.70
2017-03-27T00:42:53.739Z,76.20
2017-03-27T00:43:52.988Z,76.20
2017-03-27T00:44:52.279Z,76.40
2017-03-27T00:45:51.537Z,76.20
2017-03-27T00:46:50.835Z,76.10
2017-03-27T00:47:50.163Z,76.30
2017-03-27T00:48:49.465Z,76.70
2017-03-27T00:49:48.745Z,75.90
2017-03-27T00:50:48.040Z,75.60
2017-03-27T00:51:47.356Z,74.90
2017-03-27T00:52:46.683Z,74.70
2017-03-27T00:53:45.957Z,74.70
2017-03-27T00:54:45.225Z,74.30
2017-03-27T00:55:44.563Z,74.90
2017-03-27T00:56:43.809Z,74.70
2017-03-27T00:57:43.113Z,74.70
2017-03-27T00:58:42.638Z,74.60
2017-03-27T00:59:41.890Z,74.80
2017-03-27T01:00:41.193Z,75.10
2017-03-27T01:01:40.457Z,75.20
2017-03-27T01:02:39.786Z,75.20
2017-03-27T01:03:39.056Z,75.50
2017-03-27T01:04:38.392Z,75.40
2017-03-27T01:05:37.701Z,75.10
2017-03-27T01:06:37.766Z,75.00
2017-03-27T01:07:37.073Z,75.20
2017-03-27T01:08:36.330Z,75.10
2017-03-27T01:09:35.596Z,75.20
2017-03-27T01:10:34.961Z,75.30
2017-03-27T01:11:34.188Z,75.20
2017-03-27T01:12:33.445Z,75.60
2017-03-27T01:13:32.744Z,75.30
2017-03-27T01:14:32.813Z,75.60
2017-03-27T01:15:32.121Z,75.80
2017-03-27T01:16:31.613Z,75.80
2017-03-27T01:17:30.916Z,76.10
2017-03-27T01:18:30.189Z,76.30
2017-03-27T01:19:29.434Z,76.30
2017-03-27T01:20:28.701Z,76.50
2017-03-27T01:21:27.979Z,76.80
2017-03-27T01:22:27.268Z,77.00
2017-03-27T01:23:26.561Z,77.00
2017-03-27T01:24:25.871Z,76.90
2017-03-27T01:25:25.134Z,76.90
2017-03-27T01:26:24.452Z,77.00
2017-03-27T01:27:24.537Z,77.10
2017-03-27T01:28:23.804Z,77.00
2017-03-27T01:29:23.115Z,77.00
2017-03-27T01:30:22.418Z,77.00
2017-03-27T01:31:21.733Z,77.00
2017-03-27T01:32:21.036Z,77.10
2017-03-27T01:33:21.196Z,77.00
2017-03-27T01:34:20.786Z,77.10
2017-03-27T01:35:20.090Z,77.30
2017-03-27T01:36:19.345Z,77.30
2017-03-27T01:37:18.634Z,77.40
2017-03-27T01:38:17.892Z,77.20
2017-03-27T01:39:17.162Z,77.30
2017-03-27T01:40:16.459Z,77.90
2017-03-27T01:41:15.744Z,77.70
2017-03-27T01:42:14.990Z,77.60
2017-03-27T01:43:14.285Z,77.70
2017-03-27T01:44:13.593Z,78.00
2017-03-27T01:45:12.900Z,78.10
2017-03-27T01:46:12.247Z,77.70
2017-03-27T01:47:11.554Z,77.70
2017-03-27T01:48:10.943Z,78.00
2017-03-27T01:49:10.218Z,78.10
2017-03-27T01:50:09.515Z,78.10
2017-03-27T01:51:08.819Z,77.90
2017-03-27T01:52:08.553Z,78.00
2017-03-27T01:53:08.609Z,78.30
2017-03-27T01:54:07.982Z,79.20
2017-03-27T01:55:07.301Z,78.70
2017-03-27T01:56:06.570Z,78.70
2017-03-27T01:57:06.087Z,78.40
2017-03-27T01:58:05.461Z,78.30
2017-03-27T01:59:04.740Z,78.50
2017-03-27T02:00:04.003Z,78.50
2017-03-27T02:01:03.288Z,78.40
2017-03-27T02:02:02.555Z,78.20
2017-03-27T02:03:01.802Z,78.10
2017-03-27T02:04:01.168Z,78.00
2017-03-27T02:05:00.427Z,77.80
2017-03-27T02:05:59.769Z,78.70
2017-03-27T02:06:59.089Z,78.50
2017-03-27T02:07:58.386Z,78.10
2017-03-27T02:08:57.763Z,78.10
2017-03-27T02:09:57.398Z,77.80
2017-03-27T02:10:56.708Z,77.50
2017-03-27T02:11:55.998Z,77.30
2017-03-27T02:12:55.266Z,77.40
2017-03-27T02:13:54.549Z,77.40
2017-03-27T02:14:53.816Z,77.50
2017-03-27T02:15:53.109Z,77.60
2017-03-27T02:16:52.354Z,77.70
2017-03-27T02:17:51.694Z,77.40
2017-03-27T02:18:50.958Z,77.40
2017-03-27T02:19:50.252Z,77.90
2017-03-27T02:20:49.591Z,77.50
2017-03-27T02:21:48.919Z,77.50
2017-03-27T02:22:48.174Z,77.90
2017-03-27T02:23:47.447Z,78.00
2017-03-27T02:24:46.770Z,78.20
2017-03-27T02:25:46.028Z,78.20
2017-03-27T02:26:45.377Z,78.20
2017-03-27T02:27:45.759Z,78.30
2017-03-27T02:28:45.001Z,78.50
2017-03-27T02:29:44.286Z,78.90
2017-03-27T02:30:43.597Z,78.90
2017-03-27T02:31:42.873Z,78.80
2017-03-27T02:32:42.135Z,78.70
2017-03-27T02:33:41.419Z,78.50
2017-03-27T02:34:40.728Z,78.40
2017-03-27T02:35:40.053Z,78.30
2017-03-27T02:36:39.312Z,78.20
2017-03-27T02:37:38.570Z,79.20
2017-03-27T02:38:37.826Z,78.60
2017-03-27T02:39:37.105Z,78.70
2017-03-27T02:40:36.481Z,78.60
2017-03-27T02:41:35.761Z,79.00
2017-03-27T02:42:35.739Z,79.10
2017-03-27T02:43:35.134Z,78.90
2017-03-27T02:44:34.392Z,79.10
2017-03-27T02:45:33.906Z,79.10
2017-03-27T02:46:33.161Z,79.30
2017-03-27T02:47:32.585Z,79.50
2017-03-27T02:48:31.997Z,79.60
2017-03-27T02:49:31.229Z,79.60
2017-03-27T02:50:30.549Z,79.70
2017-03-27T02:51:29.839Z,79.70
2017-03-27T02:52:29.192Z,79.80
2017-03-27T02:53:28.459Z,80.10
2017-03-27T02:54:27.931Z,80.40
2017-03-27T02:55:27.211Z,80.20
2017-03-27T02:56:26.479Z,80.50
2017-03-27T02:57:25.778Z,80.90
2017-03-27T02:58:25.019Z,81.00
2017-03-27T02:59:24.287Z,81.00
2017-03-27T03:00:23.545Z,80.70
2017-03-27T03:01:22.921Z,80.90
2017-03-27T03:02:22.219Z,80.90
2017-03-27T03:03:22.053Z,81.10
2017-03-27T03:04:21.318Z,81.20
2017-03-27T03:05:20.586Z,81.50
2017-03-27T03:06:19.838Z,81.70
2017-03-27T03:07:19.125Z,81.80
2017-03-27T03:08:18.411Z,82.00
2017-03-27T03:09:17.758Z,82.10
2017-03-27T03:10:17.079Z,81.90
2017-03-27T03:11:16.344Z,81.60
2017-03-27T03:12:15.632Z,81.30
2017-03-27T03:13:14.925Z,81.00
2017-03-27T03:14:14.218Z,80.40
2017-03-27T03:15:13.597Z,80.00
2017-03-27T03:16:12.930Z,80.10
2017-03-27T03:17:12.158Z,80.00
2017-03-27T03:18:11.437Z,79.80
2017-03-27T03:19:11.481Z,79.90
2017-03-27T03:20:10.881Z,80.10
2017-03-27T03:21:10.518Z,80.20
2017-03-27T03:22:09.827Z,80.30
2017-03-27T03:23:09.114Z,80.40
2017-03-27T03:24:08.406Z,80.50
2017-03-27T03:25:07.747Z,80.60
2017-03-27T03:26:07.021Z,80.40
2017-03-27T03:27:06.458Z,80.70
2017-03-27T03:28:05.737Z,80.80
2017-03-27T03:29:04.981Z,81.00
2017-03-27T03:30:04.270Z,81.70
2017-03-27T03:31:03.579Z,81.90
2017-03-27T03:32:02.839Z,82.00
2017-03-27T03:33:02.175Z,82.30
2017-03-27T03:34:01.530Z,82.70
2017-03-27T03:35:00.814Z,82.70
2017-03-27T03:36:00.083Z,82.90
2017-03-27T03:36:59.514Z,82.90
2017-03-27T03:37:58.757Z,82.90
2017-03-27T03:38:58.060Z,82.80
2017-03-27T03:39:57.323Z,82.70
2017-03-27T03:40:56.613Z,82.80
2017-03-27T03:41:55.889Z,82.80
2017-03-27T03:42:55.175Z,82.60
2017-03-27T03:43:54.441Z,82.10
2017-03-27T03:44:53.721Z,81.90
2017-03-27T03:45:52.994Z,81.80
2017-03-27T03:46:52.250Z,81.80
2017-03-27T03:47:51.486Z,82.10
2017-03-27T03:48:50.845Z,82.00
2017-03-27T03:49:50.105Z,82.30
2017-03-27T03:50:49.650Z,82.00
2017-03-27T03:51:48.885Z,82.10
2017-03-27T03:52:48.136Z,82.10
2017-03-27T03:53:47.398Z,81.90
2017-03-27T03:54:46.722Z,82.00
2017-03-27T03:55:45.991Z,82.10
2017-03-27T03:56:45.285Z,82.00
2017-03-27T03:57:44.608Z,82.00
2017-03-27T03:58:43.872Z,81.90
2017-03-27T03:59:43.128Z,82.30
2017-03-27T04:00:42.389Z,82.40
2017-03-27T04:01:41.635Z,82.30
2017-03-27T04:02:40.904Z,82.30
2017-03-27T04:03:40.160Z,82.40
2017-03-27T04:04:39.396Z,82.50
2017-03-27T04:05:38.658Z,82.60
2017-03-27T04:06:37.932Z,82.90
2017-03-27T04:07:37.274Z,82.90
2017-03-27T04:08:36.564Z,82.80
2017-03-27T04:09:35.848Z,82.80
2017-03-27T04:10:35.110Z,82.90
2017-03-27T04:11:34.394Z,82.80
2017-03-27T04:12:33.654Z,82.90
2017-03-27T04:13:32.946Z,82.90
2017-03-27T04:14:32.969Z,82.80
2017-03-27T04:15:32.272Z,83.10
2017-03-27T04:16:32.609Z,83.10
2017-03-27T04:17:31.868Z,83.20
2017-03-27T04:18:31.138Z,83.80
2017-03-27T04:19:30.394Z,83.90
2017-03-27T04:20:29.677Z,83.90
2017-03-27T04:21:28.933Z,84.10
2017-03-27T04:22:28.197Z,84.30
2017-03-27T04:23:28.210Z,84.70
2017-03-27T04:24:28.220Z,84.70
2017-03-27T04:25:27.492Z,84.70
2017-03-27T04:26:26.765Z,84.70
2017-03-27T04:27:26.082Z,84.70
2017-03-27T04:28:25.707Z,84.70
2017-03-27T04:29:24.971Z,84.70
2017-03-27T04:30:24.261Z,84.70
2017-03-27T04:31:23.518Z,84.70
2017-03-27T04:32:22.859Z,84.70
2017-03-27T04:33:22.546Z,84.90
2017-03-27T04:34:21.868Z,84.70
2017-03-27T04:35:21.174Z,84.70
2017-03-27T04:36:20.530Z,84.60
2017-03-27T04:37:19.794Z,84.60
2017-03-27T04:38:19.388Z,84.60
2017-03-27T04:39:18.695Z,84.50
2017-03-27T04:40:17.929Z,84.50
2017-03-27T04:41:17.227Z,85.10
2017-03-27T04:42:16.484Z,85.30
2017-03-27T04:43:15.750Z,86.80
2017-03-27T04:44:15.041Z,86.20
2017-03-27T04:45:14.332Z,86.70
2017-03-27T04:46:14.361Z,86.70
2017-03-27T04:47:13.609Z,86.70
2017-03-27T04:48:12.863Z,86.60
2017-03-27T04:49:12.135Z,86.70
2017-03-27T04:50:11.464Z,86.60
2017-03-27T04:51:10.765Z,86.70
2017-03-27T04:52:10.011Z,86.80
2017-03-27T04:53:09.321Z,86.90
2017-03-27T04:54:08.591Z,86.40
2017-03-27T04:55:07.887Z,86.40
2017-03-27T04:56:07.185Z,86.50
2017-03-27T04:57:06.433Z,86.40
2017-03-27T04:58:05.709Z,86.40
2017-03-27T04:59:05.002Z,86.20
2017-03-27T05:00:04.239Z,86.10
2017-03-27T05:01:03.500Z,85.80
2017-03-27T05:02:03.044Z,85.50
2017-03-27T05:03:02.310Z,85.40
2017-03-27T05:04:01.603Z,85.50
2017-03-27T05:05:00.885Z,85.70
2017-03-27T05:06:00.148Z,85.60
2017-03-27T05:06:59.406Z,85.60
2017-03-27T05:07:58.670Z,85.80
2017-03-27T05:08:57.934Z,86.00
2017-03-27T05:09:57.179Z,86.10
2017-03-27T05:10:56.460Z,86.20
2017-03-27T05:11:55.724Z,86.00
2017-03-27T05:12:54.983Z,86.10
2017-03-27T05:13:55.102Z,86.20
2017-03-27T05:14:54.395Z,86.00
2017-03-27T05:15:53.745Z,86.20
2017-03-27T05:16:52.997Z,86.00
2017-03-27T05:17:52.232Z,85.90
2017-03-27T05:18:51.494Z,85.80
2017-03-27T05:19:50.775Z,85.70
2017-03-27T05:20:50.037Z,85.60
2017-03-27T05:21:49.291Z,85.20
2017-03-27T05:22:49.203Z,85.00
2017-03-27T05:23:48.489Z,85.00
2017-03-27T05:24:47.779Z,85.10
2017-03-27T05:25:47.089Z,84.60
2017-03-27T05:26:46.441Z,84.20
2017-03-27T05:27:45.677Z,84.30
2017-03-27T05:28:45.614Z,84.00
2017-03-27T05:29:44.870Z,83.80
2017-03-27T05:30:44.442Z,83.80
2017-03-27T05:31:43.691Z,83.30
2017-03-27T05:32:42.976Z,83.40
2017-03-27T05:33:42.238Z,83.00
2017-03-27T05:34:41.516Z,82.60
2017-03-27T05:35:40.738Z,82.60
2017-03-27T05:36:40.084Z,82.30
2017-03-27T05:37:39.382Z,82.20
2017-03-27T05:38:38.648Z,81.70
2017-03-27T05:39:38.684Z,81.50
2017-03-27T05:40:37.940Z,81.60
2017-03-27T05:41:37.201Z,81.50
2017-03-27T05:42:36.484Z,81.70
2017-03-27T05:43:36.033Z,81.70
2017-03-27T05:44:35.308Z,81.20
2017-03-27T05:45:34.595Z,81.00
2017-03-27T05:46:33.876Z,80.90
2017-03-27T05:47:33.114Z,81.10
2017-03-27T05:48:32.385Z,81.80
2017-03-27T05:49:31.634Z,80.90
2017-03-27T05:50:30.896Z,80.70
2017-03-27T05:51:30.129Z,80.50
2017-03-27T05:52:29.430Z,80.30
2017-03-27T05:53:28.674Z,80.30
2017-03-27T05:54:27.977Z,80.20
2017-03-27T05:55:27.315Z,80.20
2017-03-27T05:56:26.615Z,79.80
2017-03-27T05:57:25.833Z,79.40
2017-03-27T05:58:25.154Z,79.50
2017-03-27T05:59:24.450Z,79.30
2017-03-27T06:00:23.778Z,79.40
2017-03-27T06:01:23.143Z,79.00
2017-03-27T06:02:22.678Z,78.60
2017-03-27T06:03:21.912Z,78.70
2017-03-27T06:04:21.189Z,78.60
2017-03-27T06:05:20.476Z,79.50
2017-03-27T06:06:20.032Z,79.20
2017-03-27T06:07:19.326Z,78.80
2017-03-27T06:08:18.627Z,78.60
2017-03-27T06:09:17.923Z,77.90
2017-03-27T06:10:17.206Z,77.50
2017-03-27T06:11:16.468Z,77.90
2017-03-27T06:12:15.784Z,77.50
2017-03-27T06:13:15.072Z,77.60
2017-03-27T06:14:14.357Z,77.60
2017-03-27T06:15:13.657Z,77.00
2017-03-27T06:16:12.912Z,77.50
2017-03-27T06:17:12.186Z,77.10
2017-03-27T06:18:11.485Z,76.60
2017-03-27T06:19:10.741Z,76.40
2017-03-27T06:20:10.059Z,76.20
2017-03-27T06:21:09.354Z,75.80
2017-03-27T06:22:08.625Z,75.50
2017-03-27T06:23:07.884Z,75.30
2017-03-27T06:24:07.409Z,75.10
2017-03-27T06:25:06.664Z,74.80
2017-03-27T06:26:05.917Z,74.60
2017-03-27T06:27:05.212Z,74.80
2017-03-27T06:28:04.481Z,74.90
2017-03-27T06:29:03.712Z,75.00
2017-03-27T06:30:03.019Z,74.30
2017-03-27T06:31:02.308Z,74.50
2017-03-27T06:32:01.578Z,74.30
2017-03-27T06:33:00.851Z,74.20
2017-03-27T06:34:00.119Z,74.50
2017-03-27T06:34:59.357Z,74.00
2017-03-27T06:35:58.645Z,72.80
2017-03-27T06:36:57.932Z,72.30
2017-03-27T06:37:57.204Z,72.80
2017-03-27T06:38:56.484Z,71.60
2017-03-27T06:39:55.761Z,70.80
2017-03-27T06:40:55.019Z,71.40
2017-03-27T06:41:54.293Z,69.70
2017-03-27T06:42:53.570Z,69.70
2017-03-27T06:43:52.830Z,69.20
2017-03-27T06:44:52.191Z,68.40
2017-03-27T06:45:51.445Z,68.10
2017-03-27T06:46:50.729Z,68.00
2017-03-27T06:47:50.106Z,67.00
2017-03-27T06:48:49.360Z,67.00
2017-03-27T06:49:48.650Z,67.50
2017-03-27T06:50:47.906Z,67.00
2017-03-27T06:51:47.168Z,65.90
2017-03-27T06:52:46.434Z,65.70
2017-03-27T06:53:46.193Z,65.60
2017-03-27T06:54:45.452Z,65.50
2017-03-27T06:55:44.727Z,64.70
2017-03-27T06:56:44.018Z,65.70
2017-03-27T06:57:43.286Z,64.50
2017-03-27T06:58:42.554Z,64.60
2017-03-27T06:59:41.950Z,64.70
2017-03-27T07:00:41.240Z,62.90
2017-03-27T07:01:40.567Z,62.60
2017-03-27T07:02:39.926Z,62.70
2017-03-27T07:03:39.912Z,62.70
2017-03-27T07:04:39.230Z,62.50
2017-03-27T07:05:38.590Z,61.50
2017-03-27T07:06:37.849Z,60.40
2017-03-27T07:07:39.063Z,59.90
2017-03-27T07:08:38.356Z,59.40
2017-03-27T07:09:37.603Z,58.60
2017-03-27T07:10:36.885Z,58.40
2017-03-27T07:11:36.595Z,56.60
2017-03-27T07:12:35.933Z,55.60
2017-03-27T07:13:35.196Z,54.50
2017-03-27T07:14:34.519Z,54.50
2017-03-27T07:15:33.809Z,51.80
2017-03-27T07:16:33.061Z,51.30
2017-03-27T07:17:32.455Z,50.80
2017-03-27T07:18:32.510Z,50.00
2017-03-27T07:19:31.785Z,50.70
2017-03-27T07:20:31.103Z,48.80
2017-03-27T07:21:30.377Z,48.70
2017-03-27T07:22:29.628Z,46.80
2017-03-27T07:23:29.705Z,47.00
2017-03-27T07:24:28.981Z,46.50
2017-03-27T07:25:28.235Z,47.30
2017-03-27T07:26:27.610Z,45.60
2017-03-27T07:27:26.902Z,46.80
2017-03-27T07:28:26.183Z,45.70
2017-03-27T07:29:25.504Z,44.90
2017-03-27T07:30:24.746Z,44.40
2017-03-27T07:31:24.006Z,44.80
2017-03-27T07:32:23.531Z,44.20
2017-03-27T07:33:22.806Z,45.90
2017-03-27T07:34:22.077Z,44.00
2017-03-27T07:35:21.834Z,43.80
2017-03-27T07:36:21.112Z,42.20
2017-03-27T07:37:20.448Z,41.30
2017-03-27T07:38:19.941Z,42.40
2017-03-27T07:39:19.213Z,42.20
2017-03-27T07:40:19.238Z,41.60
2017-03-27T07:41:18.631Z,41.10
2017-03-27T07:42:17.902Z,41.20
2017-03-27T07:43:17.162Z,41.10
2017-03-27T07:44:16.460Z,41.40
2017-03-27T07:45:15.698Z,40.90
2017-03-27T07:46:15.033Z,39.50
2017-03-27T07:47:14.326Z,39.60
2017-03-27T07:48:13.642Z,39.90
2017-03-27T07:49:12.923Z,40.00
2017-03-27T07:50:12.256Z,40.00
2017-03-27T07:51:11.537Z,39.80
2017-03-27T07:52:10.803Z,39.30
2017-03-27T07:53:10.315Z,38.60
2017-03-27T07:54:09.576Z,38.80
2017-03-27T07:55:08.885Z,40.00
2017-03-27T07:56:08.894Z,39.10
2017-03-27T07:57:08.161Z,37.80
2017-03-27T07:58:07.482Z,36.20
2017-03-27T07:59:06.796Z,36.10
2017-03-27T08:00:06.110Z,35.70
2017-03-27T08:01:06.109Z,36.30
2017-03-27T08:02:05.574Z,36.60
2017-03-27T08:03:04.870Z,36.90
2017-03-27T08:04:04.202Z,36.10
2017-03-27T08:05:03.578Z,35.20
2017-03-27T08:06:02.851Z,36.80
2017-03-27T08:07:02.202Z,35.20
2017-03-27T08:08:01.630Z,37.70
2017-03-27T08:09:01.138Z,35.50
2017-03-27T08:10:00.413Z,35.80
2017-03-27T08:10:59.723Z,35.90
2017-03-27T08:11:58.984Z,35.70
2017-03-27T08:12:58.253Z,36.00
2017-03-27T08:13:57.659Z,35.20
2017-03-27T08:14:56.911Z,35.60
2017-03-27T08:15:56.182Z,35.10
2017-03-27T08:16:55.542Z,34.80
2017-03-27T08:17:54.813Z,34.70
2017-03-27T08:18:54.081Z,34.70
2017-03-27T08:19:53.451Z,34.70
2017-03-27T08:20:52.663Z,34.70
2017-03-27T08:21:51.903Z,35.20
2017-03-27T08:22:51.211Z,35.50
2017-03-27T08:23:50.533Z,35.70
2017-03-27T08:24:49.773Z,34.30
2017-03-27T08:25:49.126Z,33.20
2017-03-27T08:26:48.349Z,33.30
2017-03-27T08:27:47.614Z,32.70
2017-03-27T08:28:46.937Z,33.10
2017-03-27T08:29:46.189Z,33.30
2017-03-27T08:30:45.433Z,33.80
2017-03-27T08:31:44.783Z,34.00
2017-03-27T08:32:44.073Z,35.00
2017-03-27T08:33:43.338Z,34.60
2017-03-27T08:34:42.654Z,33.80
2017-03-27T08:35:41.912Z,33.40
2017-03-27T08:36:41.193Z,33.20
2017-03-27T08:37:40.543Z,33.70
2017-03-27T08:38:39.799Z,32.10
2017-03-27T08:39:39.138Z,31.20
2017-03-27T08:40:38.464Z,31.00
2017-03-27T08:41:37.818Z,30.60
2017-03-27T08:42:37.238Z,31.00
2017-03-27T08:43:36.532Z,31.50
2017-03-27T08:44:35.807Z,31.20
2017-03-27T08:45:35.053Z,31.90
2017-03-27T08:46:34.343Z,31.50
2017-03-27T08:47:33.617Z,32.60
2017-03-27T08:48:32.864Z,32.40
2017-03-27T08:49:32.153Z,32.70
2017-03-27T08:50:31.449Z,32.90
2017-03-27T08:51:30.773Z,32.90
2017-03-27T08:52:30.032Z,32.90
2017-03-27T08:53:29.281Z,32.70
2017-03-27T08:54:29.262Z,32.00
2017-03-27T08:55:28.512Z,32.00
2017-03-27T08:56:27.802Z,31.50
2017-03-27T08:57:27.096Z,31.80
2017-03-27T08:58:26.411Z,31.80
2017-03-27T08:59:25.714Z,32.50
2017-03-27T09:00:24.973Z,31.80
2017-03-27T09:01:24.219Z,32.20
2017-03-27T09:02:24.277Z,32.10
2017-03-27T09:03:23.541Z,32.50
2017-03-27T09:04:22.821Z,31.70
2017-03-27T09:05:22.127Z,32.20
2017-03-27T09:06:21.432Z,31.80
2017-03-27T09:07:20.725Z,31.90
2017-03-27T09:08:19.976Z,32.20
2017-03-27T09:09:19.256Z,31.30
2017-03-27T09:10:18.829Z,30.20
2017-03-27T09:11:18.117Z,30.80
2017-03-27T09:12:17.380Z,29.20
2017-03-27T09:13:16.676Z,30.00
2017-03-27T09:14:15.994Z,29.60
2017-03-27T09:15:15.297Z,28.30
2017-03-27T09:16:14.620Z,29.10
2017-03-27T09:17:13.858Z,28.30
2017-03-27T09:18:13.095Z,28.40
2017-03-27T09:19:12.363Z,28.40
2017-03-27T09:20:11.684Z,28.90
2017-03-27T09:21:10.962Z,28.60
2017-03-27T09:22:10.501Z,29.50
2017-03-27T09:23:09.782Z,28.90
2017-03-27T09:24:09.067Z,28.40
2017-03-27T09:25:08.346Z,27.50
2017-03-27T09:26:07.659Z,27.90
2017-03-27T09:27:06.976Z,28.40
2017-03-27T09:28:06.334Z,27.00
2017-03-27T09:29:05.587Z,26.80
2017-03-27T09:30:04.884Z,26.70
2017-03-27T09:31:04.174Z,27.30
2017-03-27T09:32:03.405Z,28.30
2017-03-27T09:33:02.672Z,28.90
2017-03-27T09:34:02.032Z,28.60
2017-03-27T09:35:01.356Z,26.90
2017-03-27T09:36:00.662Z,26.60
2017-03-27T09:36:59.938Z,27.30
2017-03-27T09:37:59.198Z,26.70
2017-03-27T09:38:58.537Z,26.40
2017-03-27T09:39:57.849Z,27.30
2017-03-27T09:40:57.072Z,26.70
2017-03-27T09:41:56.313Z,26.10
2017-03-27T09:42:55.536Z,26.30
2017-03-27T09:43:54.764Z,25.90
2017-03-27T09:44:53.981Z,26.00
2017-03-27T09:45:53.233Z,26.20
2017-03-27T09:46:52.466Z,25.80
2017-03-27T09:47:51.731Z,25.30
2017-03-27T09:48:51.000Z,26.00
2017-03-27T09:49:50.223Z,25.90
2017-03-27T09:50:49.468Z,23.70
2017-03-27T09:51:49.508Z,23.70
2017-03-27T09:52:48.755Z,23.00
2017-03-27T09:53:48.011Z,23.60
2017-03-27T09:54:47.353Z,23.70
2017-03-27T09:55:46.599Z,23.90
2017-03-27T09:56:45.859Z,24.20
2017-03-27T09:57:45.152Z,23.10
2017-03-27T09:58:44.378Z,22.90
2017-03-27T09:59:43.763Z,22.60
2017-03-27T10:00:43.029Z,23.10
2017-03-27T10:01:42.291Z,22.10
2017-03-27T10:02:41.568Z,22.20
2017-03-27T10:03:40.827Z,21.90
2017-03-27T10:04:40.096Z,21.10
2017-03-27T10:05:39.422Z,21.40
2017-03-27T10:06:38.656Z,22.50
2017-03-27T10:07:37.885Z,22.60
2017-03-27T10:08:37.124Z,22.90
2017-03-27T10:09:36.390Z,23.00
2017-03-27T10:10:36.475Z,23.50
2017-03-27T10:11:35.716Z,21.30
2017-03-27T10:12:35.730Z,21.40
2017-03-27T10:13:34.964Z,22.20
2017-03-27T10:14:34.249Z,21.40
2017-03-27T10:15:33.510Z,20.80
2017-03-27T10:16:32.746Z,21.80
2017-03-27T10:17:31.984Z,21.00
2017-03-27T10:18:31.251Z,21.20
2017-03-27T10:19:30.508Z,22.30
2017-03-27T10:20:29.736Z,21.10
2017-03-27T10:21:29.023Z,23.10
2017-03-27T10:22:28.296Z,22.10
2017-03-27T10:23:27.539Z,23.20
2017-03-27T10:24:27.499Z,22.10
2017-03-27T10:25:26.786Z,22.50
2017-03-27T10:26:26.796Z,21.10
2017-03-27T10:27:26.092Z,21.30
2017-03-27T10:28:25.355Z,22.10
2017-03-27T10:29:24.592Z,22.50
2017-03-27T10:30:23.873Z,21.90
2017-03-27T10:31:23.127Z,21.30
2017-03-27T10:32:22.893Z,21.80
2017-03-27T10:33:22.189Z,22.90
2017-03-27T10:34:21.495Z,22.10
2017-03-27T10:35:20.761Z,20.70
2017-03-27T10:36:20.021Z,21.20
2017-03-27T10:37:19.389Z,20.90
2017-03-27T10:38:18.674Z,21.00
2017-03-27T10:39:17.960Z,21.50
2017-03-27T10:40:17.281Z,21.70
2017-03-27T10:41:16.574Z,20.80
2017-03-27T10:42:15.815Z,19.60
2017-03-27T10:43:15.092Z,20.50
2017-03-27T10:44:14.373Z,20.80
2017-03-27T10:45:13.684Z,20.60
2017-03-27T10:46:12.936Z,20.60
2017-03-27T10:47:12.209Z,21.10
2017-03-27T10:48:11.511Z,20.70
2017-03-27T10:49:10.783Z,20.70
2017-03-27T10:50:11.411Z,19.50
2017-03-27T10:51:10.737Z,19.40
2017-03-27T10:52:10.006Z,20.60
2017-03-27T10:53:09.275Z,20.60
2017-03-27T10:54:08.562Z,21.10
2017-03-27T10:55:07.836Z,20.20
2017-03-27T10:56:07.132Z,20.00
2017-03-27T10:57:06.408Z,20.50
2017-03-27T10:58:05.698Z,20.80
2017-03-27T10:59:05.013Z,19.40
2017-03-27T11:00:05.033Z,18.90
2017-03-27T11:01:04.443Z,18.90
2017-03-27T11:02:03.765Z,19.10
2017-03-27T11:03:03.044Z,19.20
2017-03-27T11:04:02.381Z,20.10
2017-03-27T11:05:01.617Z,21.10
2017-03-27T11:06:00.909Z,20.50
2017-03-27T11:07:00.168Z,22.00
2017-03-27T11:08:00.283Z,22.20
2017-03-27T11:08:59.757Z,22.40
2017-03-27T11:09:59.033Z,21.10
2017-03-27T11:10:58.280Z,20.90
2017-03-27T11:11:57.525Z,21.10
2017-03-27T11:12:56.770Z,19.70
2017-03-27T11:13:56.010Z,20.40
2017-03-27T11:14:55.274Z,20.60
2017-03-27T11:15:54.537Z,21.20
2017-03-27T11:16:53.765Z,20.20
2017-03-27T11:17:53.091Z,20.00
2017-03-27T11:18:52.332Z,21.00
2017-03-27T11:19:51.588Z,21.30
2017-03-27T11:20:50.857Z,20.70
2017-03-27T11:21:50.188Z,20.70
2017-03-27T11:22:49.425Z,20.90
2017-03-27T11:23:48.698Z,20.50
2017-03-27T11:24:48.022Z,21.00
2017-03-27T11:25:47.336Z,21.20
2017-03-27T11:26:46.634Z,21.40
2017-03-27T11:27:45.932Z,21.50
2017-03-27T11:28:45.211Z,20.90
2017-03-27T11:29:44.509Z,22.20
2017-03-27T11:30:43.808Z,21.90
2017-03-27T11:31:43.064Z,21.20
2017-03-27T11:32:42.348Z,20.70
2017-03-27T11:33:41.689Z,21.30
2017-03-27T11:34:40.929Z,20.20
2017-03-27T11:35:40.217Z,19.70
2017-03-27T11:36:39.504Z,20.60
2017-03-27T11:37:38.754Z,20.10
2017-03-27T11:38:38.125Z,20.70
2017-03-27T11:39:38.370Z,20.80
2017-03-27T11:40:37.596Z,21.10
2017-03-27T11:41:36.848Z,21.60
2017-03-27T11:42:36.098Z,21.20
2017-03-27T11:43:35.405Z,19.70
2017-03-27T11:44:35.521Z,21.00
2017-03-27T11:45:34.781Z,19.90
2017-03-27T11:46:34.033Z,19.90
2017-03-27T11:47:33.339Z,19.90
2017-03-27T11:48:32.716Z,19.50
2017-03-27T11:49:32.167Z,19.80
2017-03-27T11:50:31.516Z,21.50
2017-03-27T11:51:30.853Z,21.00
2017-03-27T11:52:30.156Z,21.50
2017-03-27T11:53:29.424Z,21.10
2017-03-27T11:54:28.719Z,21.00
2017-03-27T11:55:28.027Z,20.50
2017-03-27T11:56:27.319Z,19.80
2017-03-27T11:57:26.568Z,20.10
2017-03-27T11:58:25.857Z,19.20
2017-03-27T11:59:25.093Z,19.30
2017-03-27T12:00:24.494Z,20.50
2017-03-27T12:01:23.735Z,20.00
2017-03-27T12:02:23.138Z,19.70
2017-03-27T12:03:22.421Z,19.50
2017-03-27T12:04:21.680Z,20.40
2017-03-27T12:05:20.930Z,20.30
2017-03-27T12:06:20.228Z,21.50
2017-03-27T12:07:19.461Z,20.90
2017-03-27T12:08:18.748Z,20.50
2017-03-27T12:09:18.054Z,20.50
2017-03-27T12:10:17.356Z,20.70
2017-03-27T12:11:16.651Z,19.80
2017-03-27T12:12:15.889Z,19.70
2017-03-27T12:13:15.179Z,20.60
2017-03-27T12:14:14.505Z,20.60
2017-03-27T12:15:13.764Z,20.30
2017-03-27T12:16:13.061Z,19.20
2017-03-27T12:17:12.320Z,18.80
2017-03-27T12:18:11.633Z,18.20
2017-03-27T12:19:10.933Z,18.60
2017-03-27T12:20:10.244Z,17.80
2017-03-27T12:21:09.589Z,19.60
2017-03-27T12:22:08.857Z,19.10
2017-03-27T12:23:08.229Z,18.10
2017-03-27T12:24:07.521Z,18.50
2017-03-27T12:25:06.854Z,18.10
2017-03-27T12:26:06.175Z,17.80
2017-03-27T12:27:05.463Z,17.50
2017-03-27T12:28:04.770Z,17.80
2017-03-27T12:29:04.061Z,17.90
2017-03-27T12:30:03.333Z,17.90
2017-03-27T12:31:02.580Z,18.00
2017-03-27T12:32:01.957Z,17.50
2017-03-27T12:33:01.248Z,18.10
2017-03-27T12:34:01.283Z,17.80
2017-03-27T12:35:00.521Z,17.70
2017-03-27T12:35:59.830Z,16.90
2017-03-27T12:36:59.136Z,16.40
2017-03-27T12:37:58.557Z,16.80
2017-03-27T12:38:57.841Z,16.20
2017-03-27T12:39:57.118Z,16.00
2017-03-27T12:40:56.377Z,17.10
2017-03-27T12:41:55.632Z,16.70
2017-03-27T12:42:54.858Z,17.30
2017-03-27T12:43:54.136Z,17.00